Time;durP1;ratioP1;P1;durP2;ratioP2;P2;SDS_P1;SDS_P2;PMS_P1;PMS_P2;Temp;Humidity;BMP_temperature;BMP_pressure;BME280_temperature;BME280_humidity;BME280_pressure;Samples;Min_cycle;Max_cycle;Signal;HPM_P1;HPM_P2
2021/05/01 00:01:54;;;;;;;6.15;4.80;;;;;;;;;;5115980;28;20541;-47
2021/05/01 00:04:19;;;;;;;6.40;5.22;;;;;;;;;;5116762;28;20185;-47
2021/05/01 00:06:45;;;;;;;6.03;5.00;;;;;;;;;;5117060;28;20173;-47
2021/05/01 00:09:12;;;;;;;5.38;4.88;;;;;;;;;;5116640;28;20296;-47
2021/05/01 00:11:37;;;;;;;6.90;4.90;;;;;;;;;;5115630;28;20174;-47
2021/05/01 00:14:05;;;;;;;5.05;4.57;;;;;;;;;;5116345;28;20182;-47
2021/05/01 00:16:31;;;;;;;7.20;5.13;;;;;;;;;;5103830;28;20178;-47
2021/05/01 00:18:58;;;;;;;6.93;5.10;;;;;;;;;;5101759;28;20284;-46
2021/05/01 00:21:24;;;;;;;5.72;5.13;;;;;;;;;;5108014;28;20201;-46
2021/05/01 00:23:50;;;;;;;6.18;5.10;;;;;;;;;;5116736;28;20166;-46
2021/05/01 00:26:16;;;;;;;6.13;5.35;;;;;;;;;;5115751;28;20188;-46
2021/05/01 00:28:43;;;;;;;6.15;5.40;;;;;;;;;;5116074;28;20208;-46
2021/05/01 00:31:09;;;;;;;6.03;5.00;;;;;;;;;;5109419;28;20170;-46
2021/05/01 00:33:35;;;;;;;6.07;4.97;;;;;;;;;;5115476;28;20200;-46
2021/05/01 00:36:01;;;;;;;5.60;5.10;;;;;;;;;;5116077;28;20185;-46
2021/05/01 00:38:27;;;;;;;6.43;5.10;;;;;;;;;;5116358;28;20173;-46
2021/05/01 00:40:54;;;;;;;5.38;4.88;;;;;;;;;;5115524;28;20193;-46
2021/05/01 00:43:20;;;;;;;7.13;5.40;;;;;;;;;;5116321;28;20483;-47
2021/05/01 00:45:46;;;;;;;7.50;5.38;;;;;;;;;;5116437;28;20353;-46
2021/05/01 00:48:12;;;;;;;5.85;4.90;;;;;;;;;;5111820;28;20213;-47
2021/05/01 00:50:38;;;;;;;6.75;4.75;;;;;;;;;;5106896;28;20183;-46
2021/05/01 00:53:04;;;;;;;5.15;4.65;;;;;;;;;;5116232;28;20162;-46
2021/05/01 00:55:31;;;;;;;6.10;5.43;;;;;;;;;;5115624;28;20180;-46
2021/05/01 00:57:57;;;;;;;5.85;4.78;;;;;;;;;;5116108;28;20205;-46
2021/05/01 01:03:21;;;;;;;5.97;5.10;;;;;;;;;;5080636;28;20579;-46
2021/05/01 01:05:47;;;;;;;5.38;4.88;;;;;;;;;;5115724;28;20165;-46
2021/05/01 01:08:13;;;;;;;5.47;4.97;;;;;;;;;;5115721;28;20279;-46
2021/05/01 01:10:39;;;;;;;5.82;5.20;;;;;;;;;;5114967;28;20494;-46
2021/05/01 01:13:05;;;;;;;5.90;5.30;;;;;;;;;;5107059;28;20170;-46
2021/05/01 01:15:32;;;;;;;5.85;5.15;;;;;;;;;;5115796;28;20169;-46
2021/05/01 01:17:58;;;;;;;5.60;4.97;;;;;;;;;;5115093;28;20179;-46
2021/05/01 01:20:24;;;;;;;6.10;5.35;;;;;;;;;;5102458;28;20460;-46
2021/05/01 01:22:50;;;;;;;5.90;5.30;;;;;;;;;;5109609;28;20252;-47
2021/05/01 01:25:17;;;;;;;5.90;5.30;;;;;;;;;;5115727;28;20276;-47
2021/05/01 01:27:43;;;;;;;7.65;5.15;;;;;;;;;;5114898;28;20181;-46
2021/05/01 01:30:10;;;;;;;8.27;5.10;;;;;;;;;;5115464;28;20196;-46
2021/05/01 01:32:36;;;;;;;5.65;5.07;;;;;;;;;;5112968;28;20203;-46
2021/05/01 01:35:03;;;;;;;5.57;5.07;;;;;;;;;;5114197;28;20188;-47
2021/05/01 01:37:29;;;;;;;5.80;5.20;;;;;;;;;;5114629;28;20170;-47
2021/05/01 01:39:55;;;;;;;5.43;4.93;;;;;;;;;;5115393;28;20218;-47
2021/05/01 01:42:21;;;;;;;7.18;5.32;;;;;;;;;;5114243;28;20181;-47
2021/05/01 01:44:47;;;;;;;7.47;5.80;;;;;;;;;;5114702;28;20431;-47
2021/05/01 01:47:13;;;;;;;6.60;5.65;;;;;;;;;;5115158;28;20200;-47
2021/05/01 01:49:40;;;;;;;6.15;5.55;;;;;;;;;;5114781;28;20201;-47
2021/05/01 01:52:06;;;;;;;6.22;5.20;;;;;;;;;;5114177;28;20260;-47
2021/05/01 01:54:32;;;;;;;6.10;5.50;;;;;;;;;;5096370;28;20189;-47
2021/05/01 01:56:59;;;;;;;5.60;5.10;;;;;;;;;;5114721;28;20173;-47
2021/05/01 01:59:26;;;;;;;6.20;5.60;;;;;;;;;;5114958;28;20510;-47
2021/05/01 02:01:52;;;;;;;6.38;5.78;;;;;;;;;;5114141;28;20205;-47
2021/05/01 02:04:18;;;;;;;5.68;5.18;;;;;;;;;;5103377;28;20176;-47
2021/05/01 02:06:44;;;;;;;6.35;5.50;;;;;;;;;;5114757;28;20237;-47
2021/05/01 02:09:10;;;;;;;6.00;5.40;;;;;;;;;;5095651;28;20209;-47
2021/05/01 02:11:37;;;;;;;5.50;5.00;;;;;;;;;;5094080;28;20261;-47
2021/05/01 02:14:03;;;;;;;6.85;5.65;;;;;;;;;;5110640;28;20437;-47
2021/05/01 02:16:29;;;;;;;5.85;5.28;;;;;;;;;;5113503;28;20264;-47
2021/05/01 02:18:55;;;;;;;6.30;5.70;;;;;;;;;;5114718;28;20252;-47
2021/05/01 02:21:21;;;;;;;5.63;5.10;;;;;;;;;;5094355;28;20807;-47
2021/05/01 02:23:47;;;;;;;6.03;5.43;;;;;;;;;;5108434;28;20177;-47
2021/05/01 02:26:13;;;;;;;5.88;5.38;;;;;;;;;;5118518;28;20227;-47
2021/05/01 02:28:39;;;;;;;7.07;6.18;;;;;;;;;;5118750;28;20201;-47
2021/05/01 02:31:05;;;;;;;6.70;6.10;;;;;;;;;;5118176;28;20516;-47
2021/05/01 02:33:31;;;;;;;6.18;5.57;;;;;;;;;;5117677;28;20212;-47
2021/05/01 02:35:57;;;;;;;6.30;5.70;;;;;;;;;;5117842;28;20184;-47
2021/05/01 02:38:23;;;;;;;6.22;5.63;;;;;;;;;;5118496;28;20567;-47
2021/05/01 02:40:49;;;;;;;6.38;5.78;;;;;;;;;;5101554;28;20178;-47
2021/05/01 02:43:15;;;;;;;6.43;5.82;;;;;;;;;;5098172;28;20170;-46
2021/05/01 02:45:41;;;;;;;5.68;5.18;;;;;;;;;;5106541;28;20188;-46
2021/05/01 02:48:07;;;;;;;6.57;5.70;;;;;;;;;;5117566;28;20181;-46
2021/05/01 02:50:33;;;;;;;6.53;5.93;;;;;;;;;;5108321;28;20170;-46
2021/05/01 02:53:00;;;;;;;6.38;5.80;;;;;;;;;;5118328;28;20173;-46
2021/05/01 02:55:26;;;;;;;6.88;6.18;;;;;;;;;;5117952;28;20180;-46
2021/05/01 02:57:53;;;;;;;7.00;6.30;;;;;;;;;;5117610;28;20222;-46
2021/05/01 03:00:20;;;;;;;6.43;5.78;;;;;;;;;;5118181;28;20165;-46
2021/05/01 03:02:46;;;;;;;6.82;6.13;;;;;;;;;;5117401;28;20185;-46
2021/05/01 03:05:13;;;;;;;6.85;6.03;;;;;;;;;;5117848;28;20185;-46
2021/05/01 03:07:39;;;;;;;6.70;6.00;;;;;;;;;;5118169;28;20170;-46
2021/05/01 03:10:07;;;;;;;8.55;5.97;;;;;;;;;;5117840;28;20487;-46
2021/05/01 03:12:33;;;;;;;7.50;6.45;;;;;;;;;;5116303;28;20373;-47
2021/05/01 03:14:59;;;;;;;7.00;6.30;;;;;;;;;;5117551;28;20608;-46
2021/05/01 03:17:25;;;;;;;6.53;5.88;;;;;;;;;;5117549;28;20170;-46
2021/05/01 03:19:51;;;;;;;7.80;6.38;;;;;;;;;;5117651;28;20203;-46
2021/05/01 03:22:17;;;;;;;7.05;6.10;;;;;;;;;;5117174;28;20181;-47
2021/05/01 03:24:43;;;;;;;6.40;5.80;;;;;;;;;;5116744;28;20268;-47
2021/05/01 03:27:09;;;;;;;6.95;6.20;;;;;;;;;;5116895;28;20252;-47
2021/05/01 03:29:35;;;;;;;7.03;6.25;;;;;;;;;;5117062;28;20201;-47
2021/05/01 03:32:01;;;;;;;6.97;6.28;;;;;;;;;;5115562;28;20543;-47
2021/05/01 03:34:27;;;;;;;8.18;7.00;;;;;;;;;;5117459;28;20223;-47
2021/05/01 03:36:53;;;;;;;7.20;6.50;;;;;;;;;;5097229;28;20465;-47
2021/05/01 03:39:20;;;;;;;6.75;6.15;;;;;;;;;;5112948;28;20181;-47
2021/05/01 03:41:46;;;;;;;6.75;6.03;;;;;;;;;;5117105;28;20177;-47
2021/05/01 03:44:12;;;;;;;8.88;7.10;;;;;;;;;;5116817;28;20212;-47
2021/05/01 03:46:38;;;;;;;7.18;6.47;;;;;;;;;;5116658;28;20173;-47
2021/05/01 03:49:04;;;;;;;6.80;6.20;;;;;;;;;;5117204;28;20594;-47
2021/05/01 03:51:30;;;;;;;7.47;6.78;;;;;;;;;;5115641;28;20196;-47
2021/05/01 03:53:56;;;;;;;7.68;6.97;;;;;;;;;;5117373;28;20556;-47
2021/05/01 03:56:22;;;;;;;7.45;6.70;;;;;;;;;;5116609;28;20169;-47
2021/05/01 03:58:49;;;;;;;7.07;6.38;;;;;;;;;;5116876;28;20399;-47
2021/05/01 04:01:15;;;;;;;8.05;6.95;;;;;;;;;;5116039;28;20215;-46
2021/05/01 04:03:41;;;;;;;7.75;6.80;;;;;;;;;;5116905;28;20173;-47
2021/05/01 04:06:07;;;;;;;7.10;6.40;;;;;;;;;;5107966;28;20181;-47
2021/05/01 04:08:33;;;;;;;7.82;7.05;;;;;;;;;;5096539;28;20564;-47
2021/05/01 04:10:59;;;;;;;6.95;6.30;;;;;;;;;;5101546;28;20201;-47
2021/05/01 04:13:26;;;;;;;7.43;6.70;;;;;;;;;;5116175;28;20180;-47
2021/05/01 04:15:52;;;;;;;8.05;7.32;;;;;;;;;;5116355;28;20502;-51
2021/05/01 04:18:18;;;;;;;7.63;6.93;;;;;;;;;;5116206;28;20199;-47
2021/05/01 04:20:44;;;;;;;7.93;6.95;;;;;;;;;;5100030;28;20819;-47
2021/05/01 04:23:10;;;;;;;7.63;6.93;;;;;;;;;;5096415;28;20533;-46
2021/05/01 04:25:36;;;;;;;7.63;6.93;;;;;;;;;;5104903;28;20265;-46
2021/05/01 04:28:02;;;;;;;8.38;7.50;;;;;;;;;;5115731;28;20173;-46
2021/05/01 04:30:29;;;;;;;7.85;6.95;;;;;;;;;;5116202;28;20157;-46
2021/05/01 04:32:55;;;;;;;7.65;6.85;;;;;;;;;;5115661;28;21464;-46
2021/05/01 04:35:21;;;;;;;8.50;7.35;;;;;;;;;;5104826;28;20180;-46
2021/05/01 04:37:47;;;;;;;7.55;6.85;;;;;;;;;;5116193;28;20173;-47
2021/05/01 04:40:13;;;;;;;8.98;7.32;;;;;;;;;;5116378;28;20184;-47
2021/05/01 04:42:47;;;;;;;7.88;7.07;;;;;;;;;;5114555;28;20173;-47
2021/05/01 04:45:14;;;;;;;7.53;6.82;;;;;;;;;;5116119;28;20169;-47
2021/05/01 04:47:40;;;;;;;7.95;7.15;;;;;;;;;;5115717;28;20188;-47
2021/05/01 04:50:06;;;;;;;7.10;6.40;;;;;;;;;;5115872;28;20208;-46
2021/05/01 04:52:32;;;;;;;8.10;7.30;;;;;;;;;;5115044;28;20217;-46
2021/05/01 04:55:06;;;;;;;8.02;7.22;;;;;;;;;;5115902;28;20211;-46
2021/05/01 04:57:32;;;;;;;7.75;6.95;;;;;;;;;;5115774;28;20253;-46
2021/05/01 04:59:58;;;;;;;8.10;7.30;;;;;;;;;;5115298;28;20610;-46
2021/05/01 05:02:24;;;;;;;8.13;7.32;;;;;;;;;;5114430;28;20197;-46
2021/05/01 05:04:50;;;;;;;7.57;6.82;;;;;;;;;;5115752;28;20177;-46
2021/05/01 05:07:16;;;;;;;7.68;6.97;;;;;;;;;;5115793;28;20168;-46
2021/05/01 05:09:42;;;;;;;7.32;6.65;;;;;;;;;;5111563;28;20209;-47
2021/05/01 05:12:08;;;;;;;8.23;7.43;;;;;;;;;;5115017;28;20197;-46
2021/05/01 05:14:34;;;;;;;8.40;7.60;;;;;;;;;;5115050;28;20173;-46
2021/05/01 05:17:00;;;;;;;8.60;7.70;;;;;;;;;;5115256;28;20445;-46
2021/05/01 05:19:26;;;;;;;8.10;7.30;;;;;;;;;;5115370;28;20241;-46
2021/05/01 05:21:52;;;;;;;8.25;7.40;;;;;;;;;;5114966;28;20193;-46
2021/05/01 05:24:18;;;;;;;7.95;7.15;;;;;;;;;;5115431;28;20166;-46
2021/05/01 05:26:44;;;;;;;7.90;7.20;;;;;;;;;;5115056;28;20766;-46
2021/05/01 05:29:12;;;;;;;8.43;7.53;;;;;;;;;;5113101;28;20208;-46
2021/05/01 05:31:38;;;;;;;7.75;7.05;;;;;;;;;;5114562;28;20195;-47
2021/05/01 05:34:04;;;;;;;8.27;7.47;;;;;;;;;;5114978;28;20540;-46
2021/05/01 05:36:30;;;;;;;7.68;6.97;;;;;;;;;;5115425;28;20165;-46
2021/05/01 05:38:56;;;;;;;8.40;7.50;;;;;;;;;;5092853;28;20837;-46
2021/05/01 05:41:24;;;;;;;8.18;7.35;;;;;;;;;;5113971;28;20245;-46
2021/05/01 05:43:50;;;;;;;8.50;7.45;;;;;;;;;;5108596;28;20178;-47
2021/05/01 05:46:17;;;;;;;8.05;7.25;;;;;;;;;;5095044;28;20257;-47
2021/05/01 05:48:43;;;;;;;8.00;7.30;;;;;;;;;;5112872;28;20474;-47
2021/05/01 05:51:09;;;;;;;7.88;7.07;;;;;;;;;;5114485;28;20181;-47
2021/05/01 05:53:35;;;;;;;8.10;7.22;;;;;;;;;;5109803;28;20252;-46
2021/05/01 05:56:01;;;;;;;8.55;7.75;;;;;;;;;;5114933;28;20251;-46
2021/05/01 05:58:27;;;;;;;8.45;7.47;;;;;;;;;;5114823;28;20184;-46
2021/05/01 06:00:54;;;;;;;8.20;7.40;;;;;;;;;;5114519;28;20200;-46
2021/05/01 06:03:21;;;;;;;8.60;7.47;;;;;;;;;;5114698;28;20188;-46
2021/05/01 06:05:49;;;;;;;7.97;7.18;;;;;;;;;;5114832;28;20170;-46
2021/05/01 06:08:16;;;;;;;8.55;7.72;;;;;;;;;;5114969;28;20176;-46
2021/05/01 06:10:43;;;;;;;7.97;7.28;;;;;;;;;;5109741;28;20457;-46
2021/05/01 06:13:11;;;;;;;7.95;7.15;;;;;;;;;;5114157;28;20173;-46
2021/05/01 06:15:37;;;;;;;7.90;7.20;;;;;;;;;;5123850;28;20173;-46
2021/05/01 06:18:04;;;;;;;9.48;8.38;;;;;;;;;;5115095;28;20208;-46
2021/05/01 06:20:30;;;;;;;10.85;8.93;;;;;;;;;;5113340;28;20193;-46
2021/05/01 06:22:58;;;;;;;10.57;8.93;;;;;;;;;;5110185;28;20192;-46
2021/05/01 06:25:24;;;;;;;11.05;9.85;;;;;;;;;;5114066;28;20181;-46
2021/05/01 06:27:51;;;;;;;37.30;27.23;;;;;;;;;;5113973;28;20460;-46
2021/05/01 06:30:17;;;;;;;52.80;38.00;;;;;;;;;;5114488;28;20205;-46
2021/05/01 06:32:45;;;;;;;75.35;45.50;;;;;;;;;;5106964;28;20178;-46
2021/05/01 06:35:11;;;;;;;51.33;36.50;;;;;;;;;;5110025;28;20169;-46
2021/05/01 06:37:39;;;;;;;40.15;29.15;;;;;;;;;;5101717;28;20193;-46
2021/05/01 06:40:12;;;;;;;49.92;33.85;;;;;;;;;;5111879;28;20199;-46
2021/05/01 06:42:40;;;;;;;48.85;33.50;;;;;;;;;;5113643;28;20459;-46
2021/05/01 06:45:09;;;;;;;43.35;30.85;;;;;;;;;;5114064;28;20260;-46
2021/05/01 06:47:37;;;;;;;33.95;26.85;;;;;;;;;;5105159;28;20515;-47
2021/05/01 06:50:11;;;;;;;34.45;26.27;;;;;;;;;;5113287;28;20211;-47
2021/05/01 06:52:38;;;;;;;33.45;24.17;;;;;;;;;;5113702;28;20446;-47
2021/05/01 06:55:04;;;;;;;26.60;20.55;;;;;;;;;;5114258;28;20180;-47
2021/05/01 06:57:32;;;;;;;23.73;19.65;;;;;;;;;;5113872;28;20268;-47
2021/05/01 06:59:59;;;;;;;23.58;18.55;;;;;;;;;;5113900;28;20181;-47
2021/05/01 07:02:29;;;;;;;23.88;18.52;;;;;;;;;;5113618;28;20315;-46
2021/05/01 07:04:58;;;;;;;21.25;17.15;;;;;;;;;;5109397;28;20455;-46
2021/05/01 07:07:24;;;;;;;17.90;15.27;;;;;;;;;;5118119;28;20249;-46
2021/05/01 07:09:51;;;;;;;18.83;15.55;;;;;;;;;;5116970;28;20193;-46
2021/05/01 07:12:18;;;;;;;19.48;16.48;;;;;;;;;;5099138;28;20177;-47
2021/05/01 07:14:44;;;;;;;20.00;17.77;;;;;;;;;;5116926;28;20181;-46
2021/05/01 07:17:12;;;;;;;20.02;16.17;;;;;;;;;;5117413;28;20177;-46
2021/05/01 07:19:38;;;;;;;19.20;15.10;;;;;;;;;;5116053;28;20189;-46
2021/05/01 07:22:04;;;;;;;19.15;13.77;;;;;;;;;;5116929;28;20564;-46
2021/05/01 07:24:30;;;;;;;16.42;14.65;;;;;;;;;;5117392;28;20210;-46
2021/05/01 07:26:57;;;;;;;16.23;13.20;;;;;;;;;;5117116;28;20623;-46
2021/05/01 07:29:34;;;;;;;15.38;12.63;;;;;;;;;;5117050;28;20205;-46
2021/05/01 07:32:00;;;;;;;16.13;12.20;;;;;;;;;;5113571;28;20184;-46
2021/05/01 07:34:27;;;;;;;12.98;10.90;;;;;;;;;;5116371;28;20574;-46
2021/05/01 07:36:55;;;;;;;13.18;11.20;;;;;;;;;;5117007;28;20173;-46
2021/05/01 07:39:24;;;;;;;13.15;11.20;;;;;;;;;;5116816;28;20173;-46
2021/05/01 07:41:56;;;;;;;14.77;10.38;;;;;;;;;;5086907;28;20202;-46
2021/05/01 07:44:26;;;;;;;13.68;10.50;;;;;;;;;;5117239;28;20293;-46
2021/05/01 07:46:52;;;;;;;13.15;10.13;;;;;;;;;;5114136;28;20227;-46
2021/05/01 07:49:19;;;;;;;14.27;10.25;;;;;;;;;;5113751;28;20495;-46
2021/05/01 07:51:46;;;;;;;14.95;10.43;;;;;;;;;;5116760;28;20170;-46
2021/05/01 07:54:13;;;;;;;15.82;9.73;;;;;;;;;;5116658;28;20498;-46
2021/05/01 07:56:40;;;;;;;13.77;9.55;;;;;;;;;;5116594;28;20180;-46
2021/05/01 07:59:06;;;;;;;11.73;10.10;;;;;;;;;;5116954;28;20226;-46
2021/05/01 08:01:32;;;;;;;11.98;9.63;;;;;;;;;;5112215;28;20202;-47
2021/05/01 08:03:58;;;;;;;13.13;8.90;;;;;;;;;;5116145;28;20181;-46
2021/05/01 08:06:27;;;;;;;11.52;8.10;;;;;;;;;;5117011;28;20165;-46
2021/05/01 08:08:53;;;;;;;10.75;8.43;;;;;;;;;;5115719;28;20288;-46
2021/05/01 08:11:19;;;;;;;10.15;8.85;;;;;;;;;;5115670;28;20202;-46
2021/05/01 08:13:45;;;;;;;9.82;8.80;;;;;;;;;;5116894;28;20173;-47
2021/05/01 08:16:11;;;;;;;11.25;8.48;;;;;;;;;;5116260;28;20306;-47
2021/05/01 08:18:37;;;;;;;8.85;7.72;;;;;;;;;;5112996;28;20192;-47
2021/05/01 08:21:03;;;;;;;11.32;7.60;;;;;;;;;;5115032;28;20614;-47
2021/05/01 08:23:32;;;;;;;11.15;8.30;;;;;;;;;;5113807;28;20180;-47
2021/05/01 08:25:59;;;;;;;12.23;8.70;;;;;;;;;;5116700;28;20196;-47
2021/05/01 08:28:25;;;;;;;8.60;7.68;;;;;;;;;;5116358;28;20246;-47
2021/05/01 08:30:51;;;;;;;8.80;7.90;;;;;;;;;;5116075;28;20240;-46
2021/05/01 08:33:17;;;;;;;10.10;7.50;;;;;;;;;;5115214;28;20177;-47
2021/05/01 08:35:43;;;;;;;9.82;7.60;;;;;;;;;;5116243;28;20744;-47
2021/05/01 08:38:09;;;;;;;7.97;6.80;;;;;;;;;;5110040;28;20258;-46
2021/05/01 08:40:37;;;;;;;11.88;6.93;;;;;;;;;;5102329;28;20200;-46
2021/05/01 08:43:03;;;;;;;8.60;7.35;;;;;;;;;;5098232;28;20162;-46
2021/05/01 08:45:31;;;;;;;9.38;6.97;;;;;;;;;;5116007;28;20205;-46
2021/05/01 08:47:59;;;;;;;9.20;7.22;;;;;;;;;;5116008;28;20177;-47
2021/05/01 08:50:25;;;;;;;8.60;6.97;;;;;;;;;;5107407;28;20204;-46
2021/05/01 08:52:55;;;;;;;8.98;6.88;;;;;;;;;;5110040;28;20173;-46
2021/05/01 08:55:24;;;;;;;9.15;7.10;;;;;;;;;;5113684;28;20174;-47
2021/05/01 08:57:51;;;;;;;8.38;7.07;;;;;;;;;;5115790;28;20177;-47
2021/05/01 09:00:17;;;;;;;7.95;6.72;;;;;;;;;;5115731;28;20181;-47
2021/05/01 09:02:44;;;;;;;8.40;6.55;;;;;;;;;;5114888;28;20185;-47
2021/05/01 09:05:11;;;;;;;7.78;6.95;;;;;;;;;;5115530;28;20180;-47
2021/05/01 09:07:37;;;;;;;7.13;6.40;;;;;;;;;;5114442;28;20459;-47
2021/05/01 09:10:06;;;;;;;9.25;6.55;;;;;;;;;;5107645;28;20193;-47
2021/05/01 09:12:38;;;;;;;6.85;6.25;;;;;;;;;;5115089;28;20588;-47
2021/05/01 09:15:07;;;;;;;6.82;6.18;;;;;;;;;;5115522;28;20180;-47
2021/05/01 09:17:33;;;;;;;7.55;5.93;;;;;;;;;;5114865;28;20195;-47
2021/05/01 09:20:07;;;;;;;7.10;6.25;;;;;;;;;;5115258;28;20570;-47
2021/05/01 09:22:33;;;;;;;6.75;5.50;;;;;;;;;;5114328;28;20177;-47
2021/05/01 09:25:07;;;;;;;9.35;5.93;;;;;;;;;;5115231;28;20246;-47
2021/05/01 09:27:33;;;;;;;7.78;5.88;;;;;;;;;;5114644;28;20483;-47
2021/05/01 09:30:11;;;;;;;7.35;6.07;;;;;;;;;;5113972;28;20208;-47
2021/05/01 09:32:37;;;;;;;9.52;5.28;;;;;;;;;;5114226;28;20180;-47
2021/05/01 09:35:05;;;;;;;7.03;5.57;;;;;;;;;;5114684;28;20177;-47
2021/05/01 09:37:32;;;;;;;6.47;5.55;;;;;;;;;;5114412;28;20299;-47
2021/05/01 09:39:59;;;;;;;7.30;5.53;;;;;;;;;;5113972;28;20205;-47
2021/05/01 09:42:28;;;;;;;7.93;6.03;;;;;;;;;;5114502;28;20209;-47
2021/05/01 09:45:07;;;;;;;10.77;5.63;;;;;;;;;;5114852;28;20185;-47
2021/05/01 09:47:33;;;;;;;9.45;5.78;;;;;;;;;;5096836;28;20191;-47
2021/05/01 09:49:59;;;;;;;8.25;6.18;;;;;;;;;;5114839;28;20265;-47
2021/05/01 09:52:25;;;;;;;6.05;5.45;;;;;;;;;;5114615;28;20582;-47
2021/05/01 09:54:51;;;;;;;6.90;5.97;;;;;;;;;;5112015;28;20560;-47
2021/05/01 09:57:19;;;;;;;9.45;5.78;;;;;;;;;;5114534;28;20197;-47
2021/05/01 09:59:46;;;;;;;9.00;6.20;;;;;;;;;;5114944;28;20173;-47
2021/05/01 10:02:16;;;;;;;11.15;6.43;;;;;;;;;;5114150;28;20241;-46
2021/05/01 10:04:42;;;;;;;7.78;6.22;;;;;;;;;;5114610;28;20284;-46
2021/05/01 10:07:10;;;;;;;7.40;5.85;;;;;;;;;;5114652;28;20177;-46
2021/05/01 10:09:40;;;;;;;8.50;6.28;;;;;;;;;;5114643;28;20185;-46
2021/05/01 10:12:10;;;;;;;7.97;6.15;;;;;;;;;;5113591;28;20169;-47
2021/05/01 10:14:43;;;;;;;6.63;5.90;;;;;;;;;;5114841;28;20544;-46
2021/05/01 10:17:16;;;;;;;7.07;6.38;;;;;;;;;;5113131;28;20545;-46
2021/05/01 10:19:47;;;;;;;9.55;6.20;;;;;;;;;;5108180;28;20193;-46
2021/05/01 10:22:25;;;;;;;8.80;6.85;;;;;;;;;;5114161;28;20507;-46
2021/05/01 10:24:51;;;;;;;10.32;6.65;;;;;;;;;;5114976;28;20235;-46
2021/05/01 10:27:19;;;;;;;8.25;6.72;;;;;;;;;;5106216;28;20170;-46
2021/05/01 10:29:46;;;;;;;9.93;6.65;;;;;;;;;;5103343;28;20582;-46
2021/05/01 10:32:16;;;;;;;9.15;5.75;;;;;;;;;;5113968;28;20173;-46
2021/05/01 10:34:44;;;;;;;9.45;5.93;;;;;;;;;;5114250;28;20192;-46
2021/05/01 10:37:13;;;;;;;7.53;6.20;;;;;;;;;;5114963;28;20165;-46
2021/05/01 10:39:55;;;;;;;7.00;5.57;;;;;;;;;;5114583;28;20587;-46
2021/05/01 10:42:21;;;;;;;8.65;6.60;;;;;;;;;;5117661;28;20433;-46
2021/05/01 10:45:01;;;;;;;6.47;5.50;;;;;;;;;;5117261;28;20185;-46
2021/05/01 10:47:28;;;;;;;10.77;5.95;;;;;;;;;;5118338;28;20177;-46
2021/05/01 10:49:59;;;;;;;11.63;5.82;;;;;;;;;;5118236;28;20463;-46
2021/05/01 10:52:25;;;;;;;11.38;6.15;;;;;;;;;;5118105;28;20173;-47
2021/05/01 10:55:06;;;;;;;6.63;5.78;;;;;;;;;;5118506;28;20248;-47
2021/05/01 10:57:39;;;;;;;8.75;5.38;;;;;;;;;;5117904;28;20743;-47
2021/05/01 11:00:09;;;;;;;9.15;5.22;;;;;;;;;;5116435;28;20261;-47
2021/05/01 11:02:37;;;;;;;7.00;5.65;;;;;;;;;;5117284;28;20260;-47
2021/05/01 11:05:05;;;;;;;7.65;5.65;;;;;;;;;;5118222;28;20185;-47
2021/05/01 11:07:37;;;;;;;7.05;5.53;;;;;;;;;;5116612;28;20169;-47
2021/05/01 11:10:05;;;;;;;7.53;5.10;;;;;;;;;;5117355;28;20291;-47
2021/05/01 11:12:35;;;;;;;7.00;4.78;;;;;;;;;;5116795;28;20231;-47
2021/05/01 11:15:11;;;;;;;7.05;5.70;;;;;;;;;;5116225;28;20177;-47
2021/05/01 11:17:41;;;;;;;7.43;5.25;;;;;;;;;;5115337;28;20177;-47
2021/05/01 11:20:07;;;;;;;8.85;6.22;;;;;;;;;;5115640;28;20185;-47
2021/05/01 11:22:34;;;;;;;10.20;5.80;;;;;;;;;;5116990;28;20192;-47
2021/05/01 11:25:03;;;;;;;9.13;6.00;;;;;;;;;;5117223;28;20181;-47
2021/05/01 11:27:29;;;;;;;6.35;5.22;;;;;;;;;;5117674;28;20177;-47
2021/05/01 11:29:55;;;;;;;6.03;5.20;;;;;;;;;;5117337;28;20622;-47
2021/05/01 11:32:21;;;;;;;6.55;5.00;;;;;;;;;;5116701;28;20244;-47
2021/05/01 11:34:52;;;;;;;9.40;5.20;;;;;;;;;;5116721;28;20214;-47
2021/05/01 11:37:18;;;;;;;8.02;5.43;;;;;;;;;;5117103;28;20208;-47
2021/05/01 11:39:47;;;;;;;8.25;5.55;;;;;;;;;;5117423;28;20222;-47
2021/05/01 11:42:17;;;;;;;6.80;5.47;;;;;;;;;;5116493;28;20189;-47
2021/05/01 11:44:45;;;;;;;9.95;5.72;;;;;;;;;;5117683;28;20169;-47
2021/05/01 11:47:13;;;;;;;5.72;4.85;;;;;;;;;;5116808;28;20256;-47
2021/05/01 11:49:39;;;;;;;6.05;5.13;;;;;;;;;;5105006;28;20192;-47
2021/05/01 11:52:05;;;;;;;7.72;4.97;;;;;;;;;;5115888;28;20176;-47
2021/05/01 11:54:50;;;;;;;6.95;4.57;;;;;;;;;;5117532;28;20173;-47
2021/05/01 11:57:21;;;;;;;6.80;4.63;;;;;;;;;;5116826;28;20560;-47
2021/05/01 11:59:47;;;;;;;6.43;4.57;;;;;;;;;;5117101;28;20255;-47
2021/05/01 12:02:14;;;;;;;7.13;4.85;;;;;;;;;;5115979;28;20208;-47
2021/05/01 12:05:05;;;;;;;7.65;4.60;;;;;;;;;;5114664;28;20209;-47
2021/05/01 12:07:38;;;;;;;4.93;4.43;;;;;;;;;;5104751;28;20568;-47
2021/05/01 12:10:08;;;;;;;4.78;4.03;;;;;;;;;;5115258;28;20617;-47
2021/05/01 12:12:37;;;;;;;5.13;4.18;;;;;;;;;;5112523;28;20569;-47
2021/05/01 12:15:05;;;;;;;5.78;4.53;;;;;;;;;;5102677;28;20181;-47
2021/05/01 12:17:32;;;;;;;6.85;4.70;;;;;;;;;;5116559;28;20173;-47
2021/05/01 12:20:05;;;;;;;5.40;4.43;;;;;;;;;;5114664;28;20173;-47
2021/05/01 12:22:32;;;;;;;4.55;3.97;;;;;;;;;;5097498;28;20238;-47
2021/05/01 12:24:58;;;;;;;4.57;4.18;;;;;;;;;;5096292;28;20207;-46
2021/05/01 12:27:43;;;;;;;4.28;3.88;;;;;;;;;;5103885;28;20185;-46
2021/05/01 12:30:09;;;;;;;5.82;4.43;;;;;;;;;;5116533;28;20197;-46
2021/05/01 12:32:35;;;;;;;5.30;4.25;;;;;;;;;;5115743;28;20177;-46
2021/05/01 12:35:02;;;;;;;8.48;4.22;;;;;;;;;;5116393;28;20181;-46
2021/05/01 12:37:28;;;;;;;4.15;3.75;;;;;;;;;;5106688;28;20225;-46
2021/05/01 12:40:01;;;;;;;5.63;4.00;;;;;;;;;;5116351;28;20531;-46
2021/05/01 12:42:28;;;;;;;6.57;4.20;;;;;;;;;;5115435;28;20173;-46
2021/05/01 12:44:55;;;;;;;6.15;3.90;;;;;;;;;;5116223;28;20547;-46
2021/05/01 12:47:36;;;;;;;6.60;3.90;;;;;;;;;;5115524;28;20197;-46
2021/05/01 12:50:15;;;;;;;3.80;3.45;;;;;;;;;;5115290;28;20410;-46
2021/05/01 12:52:42;;;;;;;7.35;4.10;;;;;;;;;;5112909;28;20169;-46
2021/05/01 12:55:08;;;;;;;6.72;4.30;;;;;;;;;;5095756;28;20177;-46
2021/05/01 12:57:35;;;;;;;10.10;5.82;;;;;;;;;;5095634;28;20490;-47
2021/05/01 13:00:22;;;;;;;21.25;8.20;;;;;;;;;;5114414;28;20187;-47
2021/05/01 13:03:13;;;;;;;24.33;7.55;;;;;;;;;;5094121;28;20193;-47
2021/05/01 13:05:41;;;;;;;26.38;8.55;;;;;;;;;;5115808;28;20279;-47
2021/05/01 13:08:06;;;;;;;30.92;9.75;;;;;;;;;;5115764;28;20259;-47
2021/05/01 13:10:33;;;;;;;33.08;10.27;;;;;;;;;;5114611;28;20201;-47
2021/05/01 13:13:01;;;;;;;33.53;10.13;;;;;;;;;;5115138;28;20169;-47
2021/05/01 13:15:28;;;;;;;30.98;10.90;;;;;;;;;;5115719;28;20544;-47
2021/05/01 13:18:04;;;;;;;32.53;10.95;;;;;;;;;;5115001;28;20196;-47
2021/05/01 13:20:30;;;;;;;33.45;10.25;;;;;;;;;;5114865;28;20185;-47
2021/05/01 13:23:00;;;;;;;33.30;10.73;;;;;;;;;;5115778;28;20172;-47
2021/05/01 13:25:26;;;;;;;33.33;10.13;;;;;;;;;;5112150;28;20256;-47
2021/05/01 13:27:54;;;;;;;36.63;10.75;;;;;;;;;;5114853;28;20180;-47
2021/05/01 13:30:27;;;;;;;33.67;11.10;;;;;;;;;;5115369;28;20189;-47
2021/05/01 13:32:55;;;;;;;30.48;11.15;;;;;;;;;;5115030;28;20177;-47
2021/05/01 13:35:21;;;;;;;30.55;11.55;;;;;;;;;;5115359;28;20815;-47
2021/05/01 13:37:47;;;;;;;33.88;11.73;;;;;;;;;;5115012;28;20181;-47
2021/05/01 13:40:19;;;;;;;28.85;10.82;;;;;;;;;;5115126;28;20184;-47
2021/05/01 13:42:45;;;;;;;28.85;11.25;;;;;;;;;;5112962;28;20234;-47
2021/05/01 13:45:12;;;;;;;31.55;11.27;;;;;;;;;;5114967;28;20177;-47
2021/05/01 13:47:40;;;;;;;31.98;11.45;;;;;;;;;;5105402;28;20184;-47
2021/05/01 13:50:08;;;;;;;31.20;10.77;;;;;;;;;;5115128;28;20284;-47
2021/05/01 13:52:53;;;;;;;26.08;10.73;;;;;;;;;;5114344;28;20466;-47
2021/05/01 13:55:22;;;;;;;30.52;11.20;;;;;;;;;;5115254;28;20157;-47
2021/05/01 13:57:49;;;;;;;30.73;11.27;;;;;;;;;;5109729;28;20434;-47
2021/05/01 14:00:16;;;;;;;25.65;10.25;;;;;;;;;;5114698;28;20191;-47
2021/05/01 14:02:46;;;;;;;23.33;10.38;;;;;;;;;;5096183;28;20173;-47
2021/05/01 14:05:16;;;;;;;35.00;11.13;;;;;;;;;;5114722;28;20173;-47
2021/05/01 14:07:43;;;;;;;28.67;10.23;;;;;;;;;;5114849;28;20169;-47
2021/05/01 14:10:10;;;;;;;21.23;9.52;;;;;;;;;;5114618;28;20250;-47
2021/05/01 14:12:36;;;;;;;19.98;9.57;;;;;;;;;;5114355;28;20234;-47
2021/05/01 14:15:04;;;;;;;20.42;9.25;;;;;;;;;;5099060;28;20192;-47
2021/05/01 14:17:31;;;;;;;23.83;9.00;;;;;;;;;;5107881;28;20578;-47
2021/05/01 14:19:57;;;;;;;18.58;8.52;;;;;;;;;;5118626;28;20181;-47
2021/05/01 14:22:24;;;;;;;22.00;9.68;;;;;;;;;;5118478;28;20188;-47
2021/05/01 14:24:50;;;;;;;25.13;9.50;;;;;;;;;;5119146;28;20180;-47
2021/05/01 14:27:16;;;;;;;16.88;9.25;;;;;;;;;;5118981;28;20573;-47
2021/05/01 14:29:53;;;;;;;16.90;8.15;;;;;;;;;;5117625;28;20618;-47
2021/05/01 14:32:19;;;;;;;17.90;8.15;;;;;;;;;;5104882;28;20289;-47
2021/05/01 14:34:56;;;;;;;15.95;7.82;;;;;;;;;;5116200;28;20559;-47
2021/05/01 14:37:23;;;;;;;18.40;8.60;;;;;;;;;;5115153;28;20173;-47
2021/05/01 14:39:49;;;;;;;18.42;8.55;;;;;;;;;;5098280;28;20180;-47
2021/05/01 14:42:16;;;;;;;13.43;7.53;;;;;;;;;;5116865;28;20181;-47